OITM  Sahand  Airport

Maragheh, Iran

Add Bookmark
ICAO OITM
IATA ACP
Type Airport
Status Operational
Latitude
37° 20' 52" N
37.348000
Longitude
46° 7' 40" E
46.127899
Local (GMT +3.5 ) UTC
Sep 26, 2016 12:13 pm Sep 26, 2016 08:43
Sunrise-Sunset Local UTC
Begin Civil Twilight 05:49 am 02:19
Sunrise 06:15 am 02:45
Sunset 06:17 pm 14:47
End Civil Twilight 06:43 pm 15:13
VFR
VFR
MVFR
MVFR
IFR
IFR
LIFR
LIFR
Unknown
Unavailable

Current Weather

METAR Observed VFR
OITM 260800Z VRB02KT CAVOK 21/02 Q1017 Mon, Sep 26, 2016 @ 08:00 UTC
(43 Minutes ago)
Visual Flight Rules
Wind Visibility Conditions
Varies at 2 knots (4 kph) 10 km or more
  • No significant weather
Temperatures Readings Precipitation
Current Temp
21°C
70°F
Dewpoint
2°C
36°F
Humidity 29%
Altimeter 30.03" Hg
Sea Level Pressure 1,017 mb
Field Elevation
1,340 m
4,396 ft
None Recorded
-
-

CheckWX.com is intended as a tool to help pilots better visualize weather data. It is not intended as a substitute for an official weather briefing obtained from a Flight Service Station. CheckWX.com does not meet the FAA requirements for an official pre-flight weather briefing. Therefore, it's important that pilots still call and obtain an official FSS pre-flight weather briefing.

© 2007-2016 CheckWX.com
08:43:14 UTC